Time;durP1;ratioP1;P1;durP2;ratioP2;P2;SDS_P1;SDS_P2;PMS_P1;PMS_P2;Temp;Humidity;BMP_temperature;BMP_pressure;BME280_temperature;BME280_humidity;BME280_pressure;Samples;Min_cycle;Max_cycle;Signal;HPM_P1;HPM_P2
2024/03/08 00:02:16;;;;;;;;;;;;;;;0.54;100.00;96969.17;108799;1289;22466;-88
2024/03/08 00:04:44;;;;;;;;;;;;;;;0.54;100.00;96971.86;108478;1297;23270;-88
2024/03/08 00:07:11;;;;;;;;;;;;;;;0.56;100.00;96970.70;108598;1297;22454;-88
2024/03/08 00:09:37;;;;;;;;;;;;;;;0.58;100.00;96971.60;108488;1297;23296;-88
2024/03/08 00:12:04;;;;;;;;;;;;;;;0.59;100.00;96967.98;108572;1292;22486;-88
2024/03/08 00:14:30;;;;;;;;;;;;;;;0.60;100.00;96966.21;108567;1296;22465;-89
2024/03/08 00:16:56;;;;;;;;;;;;;;;0.58;100.00;96965.45;108468;1297;22452;-88
2024/03/08 00:19:23;;;;;;;;;;;;;;;0.59;100.00;96960.95;108471;1295;22440;-88
2024/03/08 00:21:50;;;;;;;;;;;;;;;0.59;100.00;96959.80;108578;1292;23152;-89
2024/03/08 00:24:16;;;;;;;;;;;;;;;0.57;100.00;96956.69;108593;1297;22444;-88
2024/03/08 00:26:43;;;;;;;;;;;;;;;0.59;100.00;96956.70;108634;1290;22464;-89
2024/03/08 00:29:09;;;;;;;;;;;;;;;0.59;100.00;96955.35;108523;1297;22444;-88
2024/03/08 00:31:36;;;;;;;;;;;;;;;0.59;100.00;96956.67;108814;1290;23217;-89
2024/03/08 00:34:02;;;;;;;;;;;;;;;0.57;100.00;96953.77;108570;1289;22907;-88
2024/03/08 00:36:30;;;;;;;;;;;;;;;0.55;100.00;96946.23;108766;1296;22485;-89
2024/03/08 00:38:56;;;;;;;;;;;;;;;0.56;100.00;96945.30;108579;1292;22466;-88
2024/03/08 00:41:23;;;;;;;;;;;;;;;0.58;100.00;96945.54;108630;1292;23259;-88
2024/03/08 00:43:49;;;;;;;;;;;;;;;0.57;100.00;96942.73;108617;1296;22458;-88
2024/03/08 00:46:17;;;;;;;;;;;;;;;0.55;100.00;96943.02;108631;1292;22446;-88
2024/03/08 00:48:43;;;;;;;;;;;;;;;0.53;100.00;96940.61;108509;1292;23170;-88
2024/03/08 00:51:10;;;;;;;;;;;;;;;0.55;100.00;96937.75;108740;1290;23297;-87
2024/03/08 00:53:36;;;;;;;;;;;;;;;0.57;100.00;96938.09;107162;1289;22535;-88
2024/03/08 00:56:04;;;;;;;;;;;;;;;0.55;100.00;96935.99;107272;1290;22572;-88
2024/03/08 00:58:30;;;;;;;;;;;;;;;0.50;100.00;96937.39;107277;1297;22527;-88
2024/03/08 01:00:57;;;;;;;;;;;;;;;0.46;100.00;96937.64;107302;1292;25213;-88
2024/03/08 01:03:23;;;;;;;;;;;;;;;0.47;100.00;96928.90;107552;1296;24228;-88
2024/03/08 01:05:50;;;;;;;;;;;;;;;0.48;100.00;96928.31;107529;1297;25909;-88
2024/03/08 01:08:17;;;;;;;;;;;;;;;0.47;100.00;96928.72;107607;1297;22701;-88
2024/03/08 01:10:44;;;;;;;;;;;;;;;0.45;100.00;96924.41;107270;1295;25271;-88
2024/03/08 01:13:10;;;;;;;;;;;;;;;0.46;100.00;96924.58;107501;1290;22607;-87
2024/03/08 01:15:37;;;;;;;;;;;;;;;0.44;100.00;96919.61;107295;1296;22544;-88
2024/03/08 01:18:03;;;;;;;;;;;;;;;0.43;100.00;96917.82;107338;1290;22501;-88
2024/03/08 01:20:30;;;;;;;;;;;;;;;0.43;100.00;96916.73;107281;1290;22545;-88
2024/03/08 01:22:57;;;;;;;;;;;;;;;0.43;100.00;96915.59;107257;1289;23213;-88
2024/03/08 01:25:23;;;;;;;;;;;;;;;0.40;100.00;96910.85;107304;1297;22547;-88
2024/03/08 01:27:49;;;;;;;;;;;;;;;0.40;100.00;96912.22;107275;1295;22505;-87
2024/03/08 01:30:17;;;;;;;;;;;;;;;0.37;100.00;96911.70;107288;1293;22561;-88
2024/03/08 01:32:43;;;;;;;;;;;;;;;0.33;100.00;96911.83;107283;1289;22956;-88
2024/03/08 01:35:10;;;;;;;;;;;;;;;0.32;100.00;96908.82;107276;1296;22943;-88
2024/03/08 01:37:36;;;;;;;;;;;;;;;0.33;100.00;96909.61;107197;1297;22552;-88
2024/03/08 01:40:03;;;;;;;;;;;;;;;0.34;100.00;96911.06;107262;1295;22534;-88
2024/03/08 01:42:29;;;;;;;;;;;;;;;0.36;100.00;96909.07;107500;1294;22638;-88
2024/03/08 01:44:56;;;;;;;;;;;;;;;0.36;100.00;96904.46;107094;1298;24215;-88
2024/03/08 01:47:22;;;;;;;;;;;;;;;0.36;100.00;96901.23;107161;1296;24964;-87
2024/03/08 01:49:50;;;;;;;;;;;;;;;0.35;100.00;96899.23;107289;1293;23103;-87
2024/03/08 01:52:18;;;;;;;;;;;;;;;0.35;100.00;96899.63;107666;1291;22510;-84
2024/03/08 01:54:45;;;;;;;;;;;;;;;0.33;100.00;96897.54;107237;1297;22550;-84
2024/03/08 01:57:11;;;;;;;;;;;;;;;0.33;100.00;96898.75;107240;1295;23882;-85
2024/03/08 01:59:38;;;;;;;;;;;;;;;0.30;100.00;96894.48;107294;1297;22545;-84
2024/03/08 02:02:05;;;;;;;;;;;;;;;0.30;100.00;96894.60;107363;1296;22987;-84
2024/03/08 02:04:32;;;;;;;;;;;;;;;0.31;100.00;96888.76;108803;1290;23231;-85
2024/03/08 02:06:58;;;;;;;;;;;;;;;0.32;100.00;96886.18;108602;1279;23236;-85
2024/03/08 02:09:25;;;;;;;;;;;;;;;0.32;100.00;96887.20;108516;1297;22454;-85
2024/03/08 02:11:51;;;;;;;;;;;;;;;0.31;100.00;96886.38;108597;1295;22481;-85
2024/03/08 02:14:18;;;;;;;;;;;;;;;0.32;100.00;96887.70;108588;1297;22448;-85
2024/03/08 02:16:45;;;;;;;;;;;;;;;0.32;100.00;96886.32;108790;1289;22451;-85
2024/03/08 02:19:11;;;;;;;;;;;;;;;0.33;100.00;96884.45;108621;1297;22423;-86
2024/03/08 02:21:38;;;;;;;;;;;;;;;0.34;100.00;96883.96;108582;1295;22893;-85
2024/03/08 02:24:04;;;;;;;;;;;;;;;0.37;100.00;96879.39;108628;1297;22539;-85
2024/03/08 02:26:31;;;;;;;;;;;;;;;0.39;100.00;96878.20;108565;1297;23168;-85
2024/03/08 02:28:57;;;;;;;;;;;;;;;0.41;100.00;96876.70;108545;1297;22449;-85
2024/03/08 02:31:23;;;;;;;;;;;;;;;0.42;100.00;96878.30;108792;1295;22631;-85
2024/03/08 02:33:50;;;;;;;;;;;;;;;0.41;100.00;96873.27;108608;1295;22461;-85
2024/03/08 02:36:16;;;;;;;;;;;;;;;0.40;100.00;96872.81;108612;1296;22458;-85
2024/03/08 02:38:43;;;;;;;;;;;;;;;0.39;100.00;96866.27;108797;1296;22429;-85
2024/03/08 02:41:10;;;;;;;;;;;;;;;0.40;100.00;96866.35;108557;1295;22454;-85
2024/03/08 02:43:36;;;;;;;;;;;;;;;0.39;100.00;96868.63;108621;1297;23174;-85
2024/03/08 02:46:03;;;;;;;;;;;;;;;0.41;100.00;96869.85;108300;1291;22560;-84
2024/03/08 02:48:30;;;;;;;;;;;;;;;0.42;100.00;96874.38;107499;1292;22520;-84
2024/03/08 02:50:57;;;;;;;;;;;;;;;0.42;100.00;96878.10;107239;1297;22619;-84
2024/03/08 02:53:24;;;;;;;;;;;;;;;0.39;100.00;96878.36;107178;1292;24224;-85
2024/03/08 02:55:50;;;;;;;;;;;;;;;0.35;100.00;96878.46;107544;1297;22521;-84
2024/03/08 02:58:18;;;;;;;;;;;;;;;0.32;100.00;96874.27;107182;1289;24009;-84
2024/03/08 03:00:44;;;;;;;;;;;;;;;0.30;100.00;96876.08;107133;1295;23443;-85
2024/03/08 03:03:11;;;;;;;;;;;;;;;0.26;100.00;96871.23;107181;1297;22526;-84
2024/03/08 03:05:38;;;;;;;;;;;;;;;0.25;100.00;96872.81;107528;1297;22595;-84
2024/03/08 03:08:08;;;;;;;;;;;;;;;0.24;100.00;96865.62;107255;1292;23116;-84
2024/03/08 03:10:35;;;;;;;;;;;;;;;0.23;100.00;96865.82;107575;1295;22546;-84
2024/03/08 03:13:02;;;;;;;;;;;;;;;0.23;100.00;96861.23;107290;1297;23312;-84
2024/03/08 03:15:28;;;;;;;;;;;;;;;0.21;100.00;96864.63;107327;1296;24208;-84
2024/03/08 03:17:55;;;;;;;;;;;;;;;0.19;100.00;96863.88;107539;1297;23700;-85
2024/03/08 03:20:26;;;;;;;;;;;;;;;0.20;100.00;96863.47;107284;1295;24397;-84
2024/03/08 03:22:53;;;;;;;;;;;;;;;0.20;100.00;96861.80;107501;1289;23386;-84
2024/03/08 03:25:24;;;;;;;;;;;;;;;0.18;100.00;96865.14;107248;1296;22539;-84
2024/03/08 03:27:52;;;;;;;;;;;;;;;0.17;100.00;96863.33;108654;1295;22501;-85
2024/03/08 03:30:21;;;;;;;;;;;;;;;0.17;100.00;96862.37;108480;1286;23220;-85
2024/03/08 03:32:48;;;;;;;;;;;;;;;0.17;100.00;96860.66;108559;1292;22435;-85
2024/03/08 03:35:15;;;;;;;;;;;;;;;0.19;100.00;96864.39;108621;1292;22441;-85
2024/03/08 03:37:43;;;;;;;;;;;;;;;0.19;100.00;96863.70;108545;1290;22448;-85
2024/03/08 03:40:10;;;;;;;;;;;;;;;0.21;100.00;96860.35;108635;1288;22466;-85
2024/03/08 03:42:38;;;;;;;;;;;;;;;0.23;100.00;96863.80;108574;1296;23158;-85
2024/03/08 03:45:08;;;;;;;;;;;;;;;0.23;100.00;96861.89;108610;1293;22453;-85
2024/03/08 03:47:34;;;;;;;;;;;;;;;0.23;100.00;96862.06;108654;1296;23239;-85
2024/03/08 03:50:02;;;;;;;;;;;;;;;0.23;100.00;96859.86;108803;1293;23228;-85
2024/03/08 03:52:29;;;;;;;;;;;;;;;0.23;100.00;96860.37;108803;1289;22922;-85
2024/03/08 03:54:56;;;;;;;;;;;;;;;0.23;100.00;96860.18;107542;1289;22542;-84
2024/03/08 03:57:23;;;;;;;;;;;;;;;0.22;100.00;96861.61;107576;1296;22519;-84
2024/03/08 03:59:50;;;;;;;;;;;;;;;0.22;100.00;96864.21;107614;1295;22510;-84
2024/03/08 04:02:17;;;;;;;;;;;;;;;0.22;100.00;96861.83;107551;1297;22655;-84
2024/03/08 04:04:45;;;;;;;;;;;;;;;0.21;100.00;96863.21;107563;1296;22507;-84
2024/03/08 04:07:12;;;;;;;;;;;;;;;0.21;100.00;96861.35;107266;1297;22517;-84
2024/03/08 04:09:38;;;;;;;;;;;;;;;0.23;100.00;96860.34;107227;1297;22637;-84
2024/03/08 04:12:04;;;;;;;;;;;;;;;0.23;100.00;96860.24;107328;1297;22510;-84
2024/03/08 04:14:31;;;;;;;;;;;;;;;0.21;100.00;96857.11;107291;1292;22531;-84
2024/03/08 04:16:57;;;;;;;;;;;;;;;0.19;100.00;96857.75;107363;1292;22538;-84
2024/03/08 04:19:26;;;;;;;;;;;;;;;0.18;100.00;96854.63;107240;1292;23821;-84
2024/03/08 04:21:52;;;;;;;;;;;;;;;0.15;100.00;96853.23;107357;1296;22539;-85
2024/03/08 04:24:19;;;;;;;;;;;;;;;0.14;100.00;96852.79;107568;1297;25267;-84
2024/03/08 04:26:46;;;;;;;;;;;;;;;0.13;100.00;96849.65;107258;1295;22565;-85
2024/03/08 04:29:14;;;;;;;;;;;;;;;0.11;100.00;96854.20;107557;1297;22536;-84
2024/03/08 04:31:40;;;;;;;;;;;;;;;0.12;100.00;96851.95;107312;1296;22558;-84
2024/03/08 04:34:07;;;;;;;;;;;;;;;0.14;100.00;96849.77;107301;1297;22517;-84
2024/03/08 04:36:34;;;;;;;;;;;;;;;0.13;100.00;96851.85;107543;1279;23075;-84
2024/03/08 04:39:00;;;;;;;;;;;;;;;0.13;100.00;96852.06;107210;1276;22543;-84
2024/03/08 04:41:27;;;;;;;;;;;;;;;0.11;100.00;96854.54;107556;1296;25388;-84
2024/03/08 04:43:53;;;;;;;;;;;;;;;0.10;100.00;96853.47;107288;1297;22695;-84
2024/03/08 04:46:20;;;;;;;;;;;;;;;0.08;100.00;96858.86;107549;1297;22560;-84
2024/03/08 04:48:46;;;;;;;;;;;;;;;0.07;100.00;96855.88;107227;1298;25418;-84
2024/03/08 04:51:13;;;;;;;;;;;;;;;0.07;100.00;96858.46;107295;1296;22514;-84
2024/03/08 04:53:39;;;;;;;;;;;;;;;0.07;100.00;96862.48;107258;1297;22548;-84
2024/03/08 04:56:06;;;;;;;;;;;;;;;0.08;100.00;96862.79;107062;1282;25417;-84
2024/03/08 04:58:35;;;;;;;;;;;;;;;0.07;100.00;96862.38;107559;1292;22522;-84
2024/03/08 05:01:03;;;;;;;;;;;;;;;0.08;100.00;96858.02;107299;1279;22596;-84
2024/03/08 05:03:30;;;;;;;;;;;;;;;0.09;100.00;96860.00;107310;1297;22717;-84
2024/03/08 05:05:56;;;;;;;;;;;;;;;0.09;100.00;96862.36;107189;1297;22556;-85
2024/03/08 05:08:23;;;;;;;;;;;;;;;0.09;100.00;96863.91;107255;1297;22545;-84
2024/03/08 05:10:49;;;;;;;;;;;;;;;0.08;100.00;96863.63;107091;1297;22560;-84
2024/03/08 05:13:16;;;;;;;;;;;;;;;0.10;100.00;96860.96;107561;1296;22525;-84
2024/03/08 05:15:42;;;;;;;;;;;;;;;0.11;100.00;96861.39;107550;1289;23874;-84
2024/03/08 05:18:11;;;;;;;;;;;;;;;0.09;100.00;96866.33;107589;1297;22511;-84
2024/03/08 05:20:37;;;;;;;;;;;;;;;0.08;100.00;96863.34;107210;1292;22573;-84
2024/03/08 05:23:05;;;;;;;;;;;;;;;0.09;100.00;96863.25;107559;1289;23298;-84
2024/03/08 05:25:31;;;;;;;;;;;;;;;0.10;100.00;96861.30;107274;1297;24196;-84
2024/03/08 05:27:58;;;;;;;;;;;;;;;0.11;100.00;96861.37;107246;1297;25415;-84
2024/03/08 05:30:24;;;;;;;;;;;;;;;0.14;100.00;96857.60;107230;1296;22542;-84
2024/03/08 05:32:50;;;;;;;;;;;;;;;0.17;100.00;96857.94;107255;1297;22551;-84
2024/03/08 05:35:17;;;;;;;;;;;;;;;0.19;100.00;96860.67;107296;1289;22530;-85
2024/03/08 05:37:43;;;;;;;;;;;;;;;0.21;100.00;96859.31;107300;1290;22513;-84
2024/03/08 05:40:10;;;;;;;;;;;;;;;0.22;100.00;96861.27;107571;1296;24739;-85
2024/03/08 05:42:36;;;;;;;;;;;;;;;0.22;100.00;96866.58;107278;1296;23264;-84
2024/03/08 05:45:03;;;;;;;;;;;;;;;0.22;100.00;96871.37;107244;1297;24231;-84
2024/03/08 05:47:30;;;;;;;;;;;;;;;0.20;100.00;96872.34;107544;1289;23824;-84
2024/03/08 05:49:56;;;;;;;;;;;;;;;0.17;100.00;96870.37;107097;1295;22725;-84
2024/03/08 05:52:22;;;;;;;;;;;;;;;0.15;100.00;96875.23;107164;1297;22514;-84
2024/03/08 05:54:49;;;;;;;;;;;;;;;0.12;100.00;96875.63;107295;1297;22538;-84
2024/03/08 05:57:15;;;;;;;;;;;;;;;0.13;100.00;96878.61;107506;1292;22699;-84
2024/03/08 05:59:42;;;;;;;;;;;;;;;0.13;100.00;96873.66;107584;1297;22536;-84
2024/03/08 06:02:09;;;;;;;;;;;;;;;0.17;100.00;96875.62;107619;1290;22469;-84
2024/03/08 06:04:35;;;;;;;;;;;;;;;0.21;100.00;96876.90;107296;1293;22565;-84
2024/03/08 06:07:03;;;;;;;;;;;;;;;0.22;100.00;96878.02;107278;1297;24246;-84
2024/03/08 06:09:29;;;;;;;;;;;;;;;0.18;100.00;96876.25;107301;1297;22629;-84
2024/03/08 06:11:57;;;;;;;;;;;;;;;0.15;100.00;96875.89;107255;1297;23251;-84
2024/03/08 06:14:23;;;;;;;;;;;;;;;0.14;100.00;96876.87;107263;1283;23318;-84
2024/03/08 06:16:50;;;;;;;;;;;;;;;0.13;100.00;96877.91;107206;1296;24801;-84
2024/03/08 06:19:16;;;;;;;;;;;;;;;0.14;100.00;96879.24;107254;1297;22550;-84
2024/03/08 06:21:42;;;;;;;;;;;;;;;0.16;100.00;96876.19;107228;1297;23874;-84
2024/03/08 06:24:09;;;;;;;;;;;;;;;0.21;100.00;96877.04;107229;1297;22530;-84
2024/03/08 06:26:37;;;;;;;;;;;;;;;0.24;100.00;96876.17;107159;1297;24282;-84
2024/03/08 06:29:06;;;;;;;;;;;;;;;0.26;100.00;96876.70;107518;1296;22536;-84
2024/03/08 06:31:33;;;;;;;;;;;;;;;0.27;100.00;96878.30;107285;1296;22562;-84
2024/03/08 06:33:59;;;;;;;;;;;;;;;0.27;100.00;96874.20;107139;1295;22560;-84
2024/03/08 06:36:25;;;;;;;;;;;;;;;0.29;100.00;96876.61;107150;1297;22555;-84
2024/03/08 06:38:52;;;;;;;;;;;;;;;0.34;100.00;96879.73;107281;1293;22527;-85
2024/03/08 06:41:18;;;;;;;;;;;;;;;0.37;100.00;96879.19;107283;1297;22556;-85
2024/03/08 06:43:45;;;;;;;;;;;;;;;0.36;100.00;96879.95;107533;1296;22518;-85
2024/03/08 06:46:12;;;;;;;;;;;;;;;0.39;100.00;96875.46;107260;1290;25421;-85
2024/03/08 06:48:39;;;;;;;;;;;;;;;0.38;100.00;96881.31;107291;1296;23245;-84
2024/03/08 06:51:06;;;;;;;;;;;;;;;0.38;100.00;96876.36;107245;1292;24221;-84
2024/03/08 06:53:32;;;;;;;;;;;;;;;0.40;100.00;96872.98;107202;1289;22534;-84
2024/03/08 06:55:58;;;;;;;;;;;;;;;0.44;100.00;96872.23;107285;1293;22543;-84
2024/03/08 06:58:25;;;;;;;;;;;;;;;0.44;100.00;96872.05;107593;1289;23326;-85
2024/03/08 07:00:58;;;;;;;;;;;;;;;0.48;100.00;96871.08;107324;1286;24853;-85
2024/03/08 07:03:24;;;;;;;;;;;;;;;0.51;100.00;96868.77;107291;1298;24227;-84
2024/03/08 07:05:53;;;;;;;;;;;;;;;0.54;100.00;96868.04;107101;1297;22574;-85
2024/03/08 07:08:20;;;;;;;;;;;;;;;0.61;100.00;96868.45;107249;1292;22557;-85
2024/03/08 07:10:49;;;;;;;;;;;;;;;0.62;100.00;96871.13;107241;1297;22526;-85
2024/03/08 07:13:16;;;;;;;;;;;;;;;0.65;100.00;96869.84;107182;1289;22534;-84
2024/03/08 07:15:43;;;;;;;;;;;;;;;0.71;100.00;96869.45;107351;1297;22511;-84
2024/03/08 07:18:14;;;;;;;;;;;;;;;0.75;100.00;96867.77;107324;1297;22513;-84
2024/03/08 07:20:41;;;;;;;;;;;;;;;0.80;100.00;96867.23;107309;1292;22517;-84
2024/03/08 07:23:08;;;;;;;;;;;;;;;0.83;100.00;96865.66;107314;1296;24198;-85
2024/03/08 07:25:35;;;;;;;;;;;;;;;0.89;100.00;96863.21;107219;1292;22528;-84
2024/03/08 07:28:01;;;;;;;;;;;;;;;0.91;100.00;96865.79;107301;1297;24781;-85
2024/03/08 07:33:11;;;;;;;;;;;;;;;0.92;100.00;96866.94;107382;1297;22520;-84
2024/03/08 07:35:38;;;;;;;;;;;;;;;0.90;100.00;96867.35;107280;1296;22656;-84
2024/03/08 07:38:05;;;;;;;;;;;;;;;0.94;100.00;96865.94;107596;1282;22549;-85
2024/03/08 07:40:40;;;;;;;;;;;;;;;0.99;100.00;96866.58;107286;1292;23320;-84
2024/03/08 07:43:07;;;;;;;;;;;;;;;1.02;100.00;96864.85;107339;1293;23829;-84
2024/03/08 07:45:33;;;;;;;;;;;;;;;1.05;100.00;96860.98;107290;1279;22539;-84
2024/03/08 07:48:00;;;;;;;;;;;;;;;1.08;100.00;96864.23;107284;1298;22512;-84
2024/03/08 07:50:26;;;;;;;;;;;;;;;1.13;100.00;96865.20;107574;1292;23197;-85
2024/03/08 07:52:53;;;;;;;;;;;;;;;1.16;100.00;96865.64;107298;1293;24284;-85
2024/03/08 07:55:19;;;;;;;;;;;;;;;1.20;100.00;96864.52;107324;1292;22564;-84
2024/03/08 07:57:47;;;;;;;;;;;;;;;1.25;100.00;96868.29;107343;1292;22531;-85
2024/03/08 08:00:17;;;;;;;;;;;;;;;1.28;100.00;96866.19;107573;1295;22484;-84
2024/03/08 08:02:45;;;;;;;;;;;;;;;1.29;100.00;96865.02;107047;1298;22534;-84
2024/03/08 08:05:11;;;;;;;;;;;;;;;1.30;100.00;96865.15;107299;1276;24220;-85
2024/03/08 08:07:38;;;;;;;;;;;;;;;1.36;100.00;96864.77;107655;1280;22524;-85
2024/03/08 08:10:06;;;;;;;;;;;;;;;1.38;100.00;96863.20;107594;1297;25106;-84
2024/03/08 08:12:33;;;;;;;;;;;;;;;1.44;100.00;96861.91;107093;1297;25066;-85
2024/03/08 08:15:00;;;;;;;;;;;;;;;1.47;100.00;96864.06;107263;1297;22582;-85
2024/03/08 08:17:26;;;;;;;;;;;;;;;1.51;100.00;96866.48;107113;1282;24341;-84
2024/03/08 08:19:53;;;;;;;;;;;;;;;1.54;100.00;96864.92;107299;1297;22519;-84
2024/03/08 08:22:19;;;;;;;;;;;;;;;1.57;100.00;96863.88;107534;1289;22580;-85
2024/03/08 08:24:45;;;;;;;;;;;;;;;1.56;100.00;96863.77;107297;1279;23316;-85
2024/03/08 08:27:12;;;;;;;;;;;;;;;1.54;100.00;96868.70;107173;1279;22501;-84
2024/03/08 08:29:38;;;;;;;;;;;;;;;1.51;100.00;96870.08;107610;1297;22543;-84
2024/03/08 08:32:05;;;;;;;;;;;;;;;1.53;100.00;96870.68;107566;1287;22485;-85
2024/03/08 08:34:31;;;;;;;;;;;;;;;1.62;100.00;96874.60;107529;1297;23397;-84
2024/03/08 08:36:57;;;;;;;;;;;;;;;1.68;100.00;96875.69;107586;1277;23856;-85
2024/03/08 08:39:25;;;;;;;;;;;;;;;1.68;100.00;96870.89;107589;1297;22537;-84
2024/03/08 08:41:52;;;;;;;;;;;;;;;1.65;100.00;96875.73;107577;1297;24231;-84
2024/03/08 08:44:19;;;;;;;;;;;;;;;1.60;100.00;96875.88;107310;1292;22517;-84
2024/03/08 08:46:45;;;;;;;;;;;;;;;1.64;100.00;96874.98;107147;1293;22555;-84
2024/03/08 08:49:14;;;;;;;;;;;;;;;1.67;100.00;96874.52;107288;1279;22554;-84
2024/03/08 08:51:40;;;;;;;;;;;;;;;1.69;100.00;96877.80;107638;1289;24240;-84
2024/03/08 08:54:07;;;;;;;;;;;;;;;1.72;100.00;96874.15;107258;1292;22748;-84
2024/03/08 08:56:33;;;;;;;;;;;;;;;1.75;100.00;96871.14;107244;1290;22670;-84
2024/03/08 08:59:00;;;;;;;;;;;;;;;1.78;100.00;96873.86;107321;1297;25394;-85
2024/03/08 09:01:26;;;;;;;;;;;;;;;1.78;100.00;96876.40;107560;1291;22468;-84
2024/03/08 09:03:53;;;;;;;;;;;;;;;1.78;100.00;96874.72;107598;1297;22472;-85
2024/03/08 09:06:20;;;;;;;;;;;;;;;1.79;100.00;96867.48;107278;1297;23680;-85
2024/03/08 09:08:46;;;;;;;;;;;;;;;1.82;100.00;96868.09;107312;1292;22801;-85
2024/03/08 09:11:13;;;;;;;;;;;;;;;1.90;100.00;96866.11;107256;1295;22471;-85
2024/03/08 09:13:39;;;;;;;;;;;;;;;1.96;100.00;96864.83;107301;1297;22603;-85
2024/03/08 09:16:06;;;;;;;;;;;;;;;1.99;100.00;96865.27;107257;1297;22555;-85
2024/03/08 09:18:33;;;;;;;;;;;;;;;2.01;100.00;96866.98;107252;1297;23327;-84
2024/03/08 09:20:59;;;;;;;;;;;;;;;1.99;100.00;96866.63;107146;1298;167790;-84
2024/03/08 09:23:30;;;;;;;;;;;;;;;1.98;100.00;96866.55;107541;1297;22514;-85
2024/03/08 09:25:57;;;;;;;;;;;;;;;1.98;100.00;96864.67;107305;1297;22560;-85
2024/03/08 09:28:24;;;;;;;;;;;;;;;1.99;100.00;96867.19;107334;1290;22640;-84
2024/03/08 09:30:51;;;;;;;;;;;;;;;1.97;100.00;96869.20;107193;1289;22581;-85
2024/03/08 09:33:19;;;;;;;;;;;;;;;1.93;100.00;96868.30;107560;1296;23781;-84
2024/03/08 09:35:48;;;;;;;;;;;;;;;1.93;100.00;96868.31;107335;1297;24223;-85
2024/03/08 09:38:15;;;;;;;;;;;;;;;1.96;100.00;96864.52;107685;1290;22543;-84
2024/03/08 09:40:42;;;;;;;;;;;;;;;1.98;100.00;96863.83;107328;1290;24257;-85
2024/03/08 09:43:11;;;;;;;;;;;;;;;2.02;100.00;96863.48;107159;1297;22542;-84
2024/03/08 09:45:41;;;;;;;;;;;;;;;1.99;100.00;96865.11;107360;1289;22815;-85
2024/03/08 09:48:11;;;;;;;;;;;;;;;1.93;100.00;96865.06;107302;1292;23203;-85
2024/03/08 09:50:39;;;;;;;;;;;;;;;1.95;100.00;96864.75;107360;1292;22617;-85
2024/03/08 09:53:08;;;;;;;;;;;;;;;1.98;100.00;96859.56;107617;1289;25364;-84
2024/03/08 09:55:36;;;;;;;;;;;;;;;2.04;100.00;96858.53;107339;1292;22516;-84
2024/03/08 10:00:50;;;;;;;;;;;;;;;2.03;100.00;96861.91;107614;1296;22905;-85
2024/03/08 10:03:16;;;;;;;;;;;;;;;2.03;100.00;96860.65;107299;1297;22533;-84
2024/03/08 10:05:44;;;;;;;;;;;;;;;2.06;100.00;96859.38;107320;1297;22540;-84
2024/03/08 10:08:10;;;;;;;;;;;;;;;2.16;100.00;96860.25;107271;1297;22594;-85
2024/03/08 10:10:37;;;;;;;;;;;;;;;2.24;100.00;96862.98;107595;1289;22521;-84
2024/03/08 10:13:07;;;;;;;;;;;;;;;2.26;100.00;96860.08;107302;1283;24218;-84
2024/03/08 10:15:33;;;;;;;;;;;;;;;2.31;100.00;96861.79;108528;1297;22538;-84
2024/03/08 10:18:02;;;;;;;;;;;;;;;2.32;100.00;96862.71;107313;1297;22518;-84
2024/03/08 10:20:28;;;;;;;;;;;;;;;2.37;100.00;96862.51;107183;1296;22520;-84
2024/03/08 10:22:55;;;;;;;;;;;;;;;2.39;100.00;96865.36;107297;1289;23565;-85
2024/03/08 10:25:21;;;;;;;;;;;;;;;2.37;100.00;96858.86;107619;1289;22538;-85
2024/03/08 10:27:47;;;;;;;;;;;;;;;2.39;100.00;96859.75;107299;1290;22491;-85
2024/03/08 10:30:14;;;;;;;;;;;;;;;2.34;100.00;96855.03;107260;1297;22545;-84
2024/03/08 10:32:41;;;;;;;;;;;;;;;2.38;100.00;96855.58;107297;1295;22482;-85
2024/03/08 10:35:12;;;;;;;;;;;;;;;2.47;100.00;96858.17;107267;1279;23192;-84
2024/03/08 10:37:47;;;;;;;;;;;;;;;2.59;100.00;96853.77;107652;1292;22563;-84
2024/03/08 10:40:18;;;;;;;;;;;;;;;2.71;100.00;96849.92;107627;1297;22514;-84
2024/03/08 10:42:51;;;;;;;;;;;;;;;2.76;100.00;96850.54;107630;1279;24228;-84
2024/03/08 10:45:27;;;;;;;;;;;;;;;2.75;100.00;96846.02;107638;1289;22546;-84
2024/03/08 10:48:01;;;;;;;;;;;;;;;2.77;100.00;96843.42;107611;1279;25169;-84
2024/03/08 10:50:28;;;;;;;;;;;;;;;2.83;100.00;96841.77;107673;1273;22523;-84
2024/03/08 10:52:55;;;;;;;;;;;;;;;2.93;100.00;96839.73;107340;1279;22688;-85
2024/03/08 10:55:21;;;;;;;;;;;;;;;2.98;100.00;96842.44;107334;1297;22542;-85
2024/03/08 10:57:48;;;;;;;;;;;;;;;2.97;100.00;96838.95;107231;1297;22555;-85
2024/03/08 11:00:14;;;;;;;;;;;;;;;2.98;100.00;96836.63;107299;1297;23776;-85
2024/03/08 11:02:44;;;;;;;;;;;;;;;3.01;100.00;96832.42;107537;1291;23362;-85
2024/03/08 11:05:14;;;;;;;;;;;;;;;3.05;100.00;96833.31;107313;1292;22523;-84
2024/03/08 11:07:41;;;;;;;;;;;;;;;3.09;100.00;96832.84;107219;1292;22646;-85
2024/03/08 11:10:18;;;;;;;;;;;;;;;3.11;100.00;96830.10;107222;1296;24246;-84
2024/03/08 11:12:45;;;;;;;;;;;;;;;3.09;100.00;96827.00;107603;1289;22524;-84
2024/03/08 11:15:13;;;;;;;;;;;;;;;3.19;100.00;96819.20;107237;1279;24751;-85
2024/03/08 11:17:39;;;;;;;;;;;;;;;3.26;100.00;96820.50;107298;1292;24250;-84
2024/03/08 11:20:15;;;;;;;;;;;;;;;3.34;100.00;96814.67;107446;1283;22660;-84
2024/03/08 11:22:52;;;;;;;;;;;;;;;3.43;100.00;96812.54;107574;1297;24894;-85
2024/03/08 11:25:41;;;;;;;;;;;;;;;3.51;100.00;96806.41;107309;1291;24225;-84
2024/03/08 11:28:07;;;;;;;;;;;;;;;3.59;100.00;96803.88;107612;1297;22458;-84
2024/03/08 11:30:34;;;;;;;;;;;;;;;3.57;100.00;96806.20;107503;1297;22524;-85
2024/03/08 11:33:03;;;;;;;;;;;;;;;3.58;100.00;96801.34;107305;1297;22484;-85
2024/03/08 11:35:29;;;;;;;;;;;;;;;3.61;100.00;96801.34;107576;1297;22545;-84
2024/03/08 11:38:00;;;;;;;;;;;;;;;3.61;100.00;96797.55;108645;1280;22521;-85
2024/03/08 11:40:26;;;;;;;;;;;;;;;3.59;100.00;96797.14;108681;1296;22443;-85
2024/03/08 11:42:55;;;;;;;;;;;;;;;3.57;100.00;96795.63;108707;1291;23184;-83
2024/03/08 11:45:21;;;;;;;;;;;;;;;3.53;99.97;96790.00;108836;1296;22397;-83
2024/03/08 11:47:48;;;;;;;;;;;;;;;3.49;99.98;96788.60;108652;1296;22445;-83
2024/03/08 11:50:14;;;;;;;;;;;;;;;3.48;100.00;96785.06;108673;1292;23074;-82
2024/03/08 11:52:42;;;;;;;;;;;;;;;3.52;100.00;96785.27;108851;1289;22455;-83
2024/03/08 11:55:09;;;;;;;;;;;;;;;3.54;99.96;96786.11;108635;1291;22423;-83
2024/03/08 11:57:35;;;;;;;;;;;;;;;3.59;100.00;96783.14;108199;1279;22517;-83
2024/03/08 12:00:06;;;;;;;;;;;;;;;3.66;100.00;96773.97;107606;1289;22551;-85
2024/03/08 12:02:38;;;;;;;;;;;;;;;3.66;99.49;96779.44;107359;1292;22540;-84
2024/03/08 12:05:06;;;;;;;;;;;;;;;3.71;100.00;96778.17;107342;1292;25404;-85
2024/03/08 12:07:32;;;;;;;;;;;;;;;3.71;99.50;96774.55;107562;1292;22617;-85
2024/03/08 12:10:17;;;;;;;;;;;;;;;3.76;100.00;96770.26;107651;1297;24184;-85
2024/03/08 12:12:47;;;;;;;;;;;;;;;3.81;100.00;96766.16;108821;1296;23102;-85
2024/03/08 12:15:17;;;;;;;;;;;;;;;3.85;100.00;96767.55;107317;1292;23846;-85
2024/03/08 12:17:45;;;;;;;;;;;;;;;3.95;100.00;96766.23;107295;1276;22516;-85
2024/03/08 12:20:15;;;;;;;;;;;;;;;3.92;99.16;96767.98;107289;1297;22656;-85
2024/03/08 12:22:42;;;;;;;;;;;;;;;3.94;99.89;96766.98;107327;1296;22660;-85
2024/03/08 12:25:10;;;;;;;;;;;;;;;3.98;100.00;96764.45;107330;1297;22541;-85
2024/03/08 12:27:40;;;;;;;;;;;;;;;4.01;100.00;96760.34;107546;1279;22520;-85
2024/03/08 12:30:22;;;;;;;;;;;;;;;4.09;100.00;96758.48;107327;1296;24192;-85
2024/03/08 12:32:52;;;;;;;;;;;;;;;4.15;99.99;96758.23;107300;1297;22553;-84
2024/03/08 12:35:22;;;;;;;;;;;;;;;4.13;99.62;96757.64;107287;1297;22565;-85
2024/03/08 12:37:51;;;;;;;;;;;;;;;4.10;99.31;96754.83;107242;1292;22513;-84
2024/03/08 12:40:17;;;;;;;;;;;;;;;4.08;99.79;96756.36;107086;1294;22647;-85
2024/03/08 12:42:47;;;;;;;;;;;;;;;4.12;99.84;96754.63;107382;1292;25394;-85
2024/03/08 12:45:14;;;;;;;;;;;;;;;4.16;99.88;96747.05;107275;1297;24246;-85